TimeEDT,TemperatureF,Dew PointF,Humidity,Sea Level PressureIn,VisibilityMPH,Wind Direction,Wind SpeedMPH,Gust SpeedMPH,PrecipitationIn,Events,Conditions,WindDirDegrees,DateUTC
12:15 AM,73.2,66.2,79,29.68,10.0,SW,5.8,-,N/A,,Clear,230,2013-06-28 04:15:00
12:35 AM,72.5,66.0,80,29.68,10.0,SW,3.5,-,N/A,,Scattered Clouds,220,2013-06-28 04:35:00
12:55 AM,72.1,65.8,80,29.68,10.0,SW,4.6,-,N/A,,Mostly Cloudy,220,2013-06-28 04:55:00
1:15 AM,72.5,66.0,80,29.67,10.0,Calm,Calm,-,N/A,,Mostly Cloudy,0,2013-06-28 05:15:00
1:35 AM,74.5,65.8,74,29.68,10.0,West,3.5,-,N/A,,Mostly Cloudy,260,2013-06-28 05:35:00
1:55 AM,74.7,65.8,74,29.66,10.0,SSW,6.9,-,N/A,Rain,Light Rain,210,2013-06-28 05:55:00
2:15 AM,73.4,66.2,78,29.67,10.0,WSW,4.6,-,N/A,,Overcast,240,2013-06-28 06:15:00
2:35 AM,72.5,65.8,80,29.65,10.0,West,4.6,-,N/A,Thunderstorm,Scattered Clouds,260,2013-06-28 06:35:00
2:55 AM,72.3,65.1,78,29.65,10.0,West,4.6,-,N/A,Thunderstorm,Scattered Clouds,280,2013-06-28 06:55:00
3:15 AM,72.3,64.9,78,29.65,10.0,SW,5.8,-,N/A,,Mostly Cloudy,220,2013-06-28 07:15:00
3:35 AM,71.8,64.9,79,29.64,10.0,SW,6.9,-,N/A,,Overcast,220,2013-06-28 07:35:00
3:55 AM,71.8,63.9,76,29.64,10.0,WSW,3.5,-,N/A,,Overcast,240,2013-06-28 07:55:00
4:15 AM,70.5,63.7,79,29.63,10.0,Calm,Calm,-,N/A,,Overcast,0,2013-06-28 08:15:00
4:35 AM,70.2,64.0,81,29.63,10.0,Calm,Calm,-,N/A,,Overcast,0,2013-06-28 08:35:00
4:55 AM,69.3,64.0,83,29.63,10.0,South,3.5,-,N/A,,Mostly Cloudy,170,2013-06-28 08:55:00
5:15 AM,68.4,63.0,83,29.63,10.0,South,4.6,-,N/A,,Mostly Cloudy,190,2013-06-28 09:15:00
5:35 AM,68.2,61.9,80,29.63,10.0,Calm,Calm,-,N/A,,Scattered Clouds,0,2013-06-28 09:35:00
5:55 AM,68.0,61.7,80,29.63,10.0,Calm,Calm,-,N/A,,Clear,0,2013-06-28 09:55:00
6:15 AM,67.1,61.5,82,29.63,10.0,SSW,4.6,-,N/A,,Scattered Clouds,200,2013-06-28 10:15:00
6:35 AM,66.4,61.3,84,29.63,10.0,SSW,4.6,-,N/A,,Clear,210,2013-06-28 10:35:00
6:55 AM,67.1,62.1,84,29.63,10.0,SSW,3.5,-,N/A,,Clear,200,2013-06-28 10:55:00
7:15 AM,68.4,63.0,83,29.63,10.0,SSW,3.5,-,N/A,,Clear,200,2013-06-28 11:15:00
7:35 AM,70.0,63.9,81,29.63,10.0,SW,4.6,-,N/A,,Clear,220,2013-06-28 11:35:00
7:55 AM,71.2,64.6,79,29.63,10.0,WSW,4.6,-,N/A,,Clear,240,2013-06-28 11:55:00
8:55 AM,74.8,65.7,73,29.63,10.0,WNW,8.1,-,N/A,,Overcast,300,2013-06-28 12:55:00
9:15 AM,75.2,65.7,72,29.63,10.0,NW,8.1,-,N/A,,Overcast,310,2013-06-28 13:15:00
9:35 AM,76.6,65.7,69,29.62,10.0,NW,8.1,-,N/A,,Scattered Clouds,310,2013-06-28 13:35:00
9:55 AM,78.3,64.9,63,29.62,10.0,WNW,12.7,18.4,N/A,,Scattered Clouds,290,2013-06-28 13:55:00
10:15 AM,78.4,64.2,62,29.62,10.0,WNW,10.4,-,N/A,,Mostly Cloudy,290,2013-06-28 14:15:00
10:35 AM,79.2,64.9,62,29.62,10.0,West,9.2,-,N/A,,Mostly Cloudy,270,2013-06-28 14:35:00
10:55 AM,79.7,64.9,61,29.62,10.0,WNW,10.4,-,N/A,,Mostly Cloudy,300,2013-06-28 14:55:00
11:15 AM,81.0,64.4,57,29.62,10.0,WNW,11.5,18.4,N/A,,Scattered Clouds,290,2013-06-28 15:15:00
11:35 AM,81.7,64.2,55,29.62,10.0,WNW,12.7,-,N/A,,Scattered Clouds,300,2013-06-28 15:35:00
11:55 AM,81.9,63.1,53,29.62,10.0,WNW,12.7,-,N/A,,Scattered Clouds,290,2013-06-28 15:55:00
12:15 PM,82.9,63.5,52,29.61,10.0,West,9.2,-,N/A,,Scattered Clouds,280,2013-06-28 16:15:00
12:35 PM,83.8,63.0,49,29.60,10.0,West,13.8,-,N/A,,Scattered Clouds,280,2013-06-28 16:35:00
12:55 PM,82.6,61.5,49,29.60,10.0,West,15.0,19.6,N/A,,Scattered Clouds,260,2013-06-28 16:55:00
1:15 PM,80.2,62.1,54,29.61,10.0,WNW,9.2,-,N/A,,Mostly Cloudy,290,2013-06-28 17:15:00
1:35 PM,75.4,63.1,66,29.63,3.0,West,12.7,27.6,N/A,Rain-Thunderstorm,Light Thunderstorms and Rain,280,2013-06-28 17:35:00
1:55 PM,70.9,62.4,75,29.61,10.0,West,10.4,-,N/A,Thunderstorm,Mostly Cloudy,260,2013-06-28 17:55:00
2:15 PM,72.3,60.4,66,29.61,10.0,WSW,10.4,-,N/A,,Scattered Clouds,250,2013-06-28 18:15:00
2:35 PM,76.8,62.1,60,29.59,10.0,West,9.2,-,N/A,,Clear,260,2013-06-28 18:35:00
2:55 PM,79.5,62.2,55,29.60,10.0,NW,3.5,-,N/A,,Scattered Clouds,310,2013-06-28 18:55:00
3:15 PM,77.9,61.0,56,29.59,10.0,South,6.9,16.1,N/A,,Mostly Cloudy,180,2013-06-28 19:15:00
3:35 PM,75.7,60.8,60,29.59,10.0,South,5.8,-,N/A,Rain-Thunderstorm,Light Thunderstorms and Rain,190,2013-06-28 19:35:00
3:55 PM,75.4,62.2,64,29.58,10.0,SE,4.6,-,N/A,Thunderstorm,Overcast,140,2013-06-28 19:55:00
4:15 PM,76.5,63.3,64,29.57,10.0,South,4.6,-,N/A,,Mostly Cloudy,170,2013-06-28 20:15:00
4:35 PM,79.3,63.7,59,29.57,10.0,SSW,5.8,-,N/A,,Mostly Cloudy,200,2013-06-28 20:35:00
4:55 PM,81.5,62.2,52,29.56,10.0,WNW,16.1,21.9,N/A,,Scattered Clouds,290,2013-06-28 20:55:00
5:15 PM,84.2,56.7,39,29.56,10.0,WNW,15.0,21.9,N/A,,Scattered Clouds,290,2013-06-28 21:15:00
5:35 PM,83.8,55.2,37,29.56,10.0,WNW,18.4,25.3,N/A,,Clear,300,2013-06-28 21:35:00
5:55 PM,81.3,55.0,40,29.57,10.0,WNW,16.1,25.3,N/A,,Scattered Clouds,300,2013-06-28 21:55:00
6:15 PM,79.9,56.1,44,29.58,10.0,West,17.3,29.9,N/A,,Scattered Clouds,280,2013-06-28 22:15:00
6:35 PM,77.9,56.3,47,29.58,10.0,West,12.7,-,N/A,,Clear,280,2013-06-28 22:35:00
6:55 PM,76.8,54.1,45,29.58,10.0,WNW,11.5,-,N/A,,Clear,300,2013-06-28 22:55:00
7:15 PM,75.4,54.3,48,29.59,10.0,WNW,8.1,-,N/A,,Clear,300,2013-06-28 23:15:00
7:35 PM,75.0,55.4,50,29.59,10.0,WNW,5.8,-,N/A,,Scattered Clouds,300,2013-06-28 23:35:00
7:55 PM,75.0,55.4,50,29.61,10.0,West,10.4,-,N/A,,Scattered Clouds,270,2013-06-28 23:55:00
8:15 PM,73.9,55.2,52,29.60,10.0,West,12.7,-,N/A,,Scattered Clouds,270,2013-06-29 00:15:00
8:35 PM,74.1,54.3,50,29.60,10.0,WNW,6.9,-,N/A,,Clear,300,2013-06-29 00:35:00
8:55 PM,74.3,54.0,49,29.61,10.0,WNW,8.1,-,N/A,,Scattered Clouds,290,2013-06-29 00:55:00
9:15 PM,73.0,53.8,51,29.61,10.0,West,5.8,-,N/A,,Clear,280,2013-06-29 01:15:00
9:35 PM,71.6,55.0,56,29.61,10.0,NW,5.8,-,N/A,,Clear,320,2013-06-29 01:35:00
9:55 PM,71.1,55.0,57,29.61,10.0,WNW,8.1,-,N/A,,Clear,300,2013-06-29 01:55:00
10:15 PM,70.5,55.2,58,29.61,10.0,WNW,4.6,-,N/A,,Clear,300,2013-06-29 02:15:00
10:35 PM,69.8,55.9,61,29.61,10.0,Calm,Calm,-,N/A,,Clear,0,2013-06-29 02:35:00
10:55 PM,68.9,56.3,64,29.61,10.0,WSW,4.6,-,N/A,,Clear,240,2013-06-29 02:55:00
11:15 PM,67.1,56.7,69,29.61,10.0,WSW,3.5,-,N/A,,Scattered Clouds,240,2013-06-29 03:15:00
11:35 PM,66.7,57.0,71,29.61,10.0,Calm,Calm,-,N/A,,Clear,0,2013-06-29 03:35:00
11:55 PM,66.9,57.2,71,29.61,10.0,Calm,Calm,-,N/A,,Clear,0,2013-06-29 03:55:00